sensor_id;sensor_type;location;lat;lon;timestamp;P1;durP1;ratioP1;P2;durP2;ratioP2
83340;SDS011;73263;50.882;5.984;2023-12-07T15:46:56;8.65;;;2.10;;
83340;SDS011;73263;50.882;5.984;2023-12-07T15:49:22;5.57;;;2.00;;
83340;SDS011;73263;50.882;5.984;2023-12-07T15:51:47;6.73;;;2.03;;
83340;SDS011;73263;50.882;5.984;2023-12-07T15:54:12;5.30;;;1.80;;
83340;SDS011;73263;50.882;5.984;2023-12-07T15:56:41;6.90;;;2.03;;
83340;SDS011;73263;50.882;5.984;2023-12-07T15:59:06;5.53;;;2.08;;
83340;SDS011;73263;50.882;5.984;2023-12-07T16:01:32;7.73;;;1.77;;
83340;SDS011;73263;50.882;5.984;2023-12-07T16:03:57;7.77;;;2.17;;
83340;SDS011;73263;50.882;5.984;2023-12-07T16:06:22;9.27;;;2.20;;
83340;SDS011;73263;50.882;5.984;2023-12-07T16:08:48;7.03;;;1.90;;
83340;SDS011;73263;50.882;5.984;2023-12-07T16:11:13;6.07;;;1.80;;
83340;SDS011;73263;50.882;5.984;2023-12-07T16:13:39;11.13;;;1.90;;
83340;SDS011;73263;50.882;5.984;2023-12-07T16:16:04;6.25;;;2.17;;
83340;SDS011;73263;50.882;5.984;2023-12-07T16:18:29;6.17;;;1.80;;
83340;SDS011;73263;50.882;5.984;2023-12-07T16:20:55;7.33;;;1.67;;
83340;SDS011;73263;50.882;5.984;2023-12-07T16:23:21;6.28;;;1.90;;
83340;SDS011;73263;50.882;5.984;2023-12-07T16:25:46;10.77;;;2.03;;
83340;SDS011;73263;50.882;5.984;2023-12-07T16:28:12;7.83;;;1.80;;
83340;SDS011;73263;50.882;5.984;2023-12-07T16:30:37;5.57;;;1.50;;
83340;SDS011;73263;50.882;5.984;2023-12-07T16:33:02;6.87;;;1.80;;
83340;SDS011;73263;50.882;5.984;2023-12-07T16:35:28;4.60;;;1.88;;
83340;SDS011;73263;50.882;5.984;2023-12-07T16:37:53;5.10;;;1.80;;
83340;SDS011;73263;50.882;5.984;2023-12-07T16:40:18;6.93;;;1.80;;
83340;SDS011;73263;50.882;5.984;2023-12-07T16:42:44;189.33;;;81.30;;
83340;SDS011;73263;50.882;5.984;2023-12-07T16:45:09;70.57;;;26.90;;
83340;SDS011;73263;50.882;5.984;2023-12-07T16:47:35;54.90;;;20.92;;
83340;SDS011;73263;50.882;5.984;2023-12-07T16:50:00;58.37;;;20.20;;
83340;SDS011;73263;50.882;5.984;2023-12-07T16:52:26;64.00;;;22.20;;
83340;SDS011;73263;50.882;5.984;2023-12-07T16:54:51;50.87;;;18.63;;
83340;SDS011;73263;50.882;5.984;2023-12-07T16:57:19;47.42;;;17.42;;
83340;SDS011;73263;50.882;5.984;2023-12-07T16:59:45;42.83;;;16.57;;
83340;SDS011;73263;50.882;5.984;2023-12-07T17:02:11;44.30;;;17.63;;
83340;SDS011;73263;50.882;5.984;2023-12-07T17:04:36;65.90;;;25.30;;
83340;SDS011;73263;50.882;5.984;2023-12-07T17:07:01;85.80;;;30.57;;
83340;SDS011;73263;50.882;5.984;2023-12-07T17:09:27;87.27;;;30.90;;
83340;SDS011;73263;50.882;5.984;2023-12-07T17:11:52;80.50;;;29.80;;
83340;SDS011;73263;50.882;5.984;2023-12-07T17:14:20;82.30;;;30.33;;
83340;SDS011;73263;50.882;5.984;2023-12-07T17:16:45;78.32;;;27.73;;
83340;SDS011;73263;50.882;5.984;2023-12-07T17:19:12;70.38;;;26.50;;
83340;SDS011;73263;50.882;5.984;2023-12-07T17:21:38;70.60;;;25.63;;
83340;SDS011;73263;50.882;5.984;2023-12-07T17:24:03;73.37;;;26.77;;
83340;SDS011;73263;50.882;5.984;2023-12-07T17:26:29;83.97;;;29.20;;
83340;SDS011;73263;50.882;5.984;2023-12-07T17:28:54;80.37;;;30.83;;
83340;SDS011;73263;50.882;5.984;2023-12-07T17:31:19;121.70;;;59.83;;
83340;SDS011;73263;50.882;5.984;2023-12-07T17:33:44;135.20;;;66.03;;
83340;SDS011;73263;50.882;5.984;2023-12-07T17:36:10;133.80;;;70.73;;
83340;SDS011;73263;50.882;5.984;2023-12-07T17:38:35;126.07;;;62.60;;
83340;SDS011;73263;50.882;5.984;2023-12-07T17:41:01;125.30;;;60.83;;
83340;SDS011;73263;50.882;5.984;2023-12-07T17:43:27;116.55;;;61.03;;
83340;SDS011;73263;50.882;5.984;2023-12-07T17:45:52;119.33;;;59.67;;
83340;SDS011;73263;50.882;5.984;2023-12-07T17:48:18;112.17;;;55.23;;
83340;SDS011;73263;50.882;5.984;2023-12-07T17:50:43;116.20;;;55.80;;
83340;SDS011;73263;50.882;5.984;2023-12-07T17:53:09;113.43;;;54.37;;
83340;SDS011;73263;50.882;5.984;2023-12-07T17:55:34;111.37;;;53.13;;
83340;SDS011;73263;50.882;5.984;2023-12-07T17:57:59;103.90;;;52.87;;
83340;SDS011;73263;50.882;5.984;2023-12-07T18:00:25;100.67;;;50.80;;
83340;SDS011;73263;50.882;5.984;2023-12-07T18:02:50;102.13;;;50.43;;
83340;SDS011;73263;50.882;5.984;2023-12-07T18:05:15;107.43;;;51.57;;
83340;SDS011;73263;50.882;5.984;2023-12-07T18:07:42;106.78;;;49.20;;
83340;SDS011;73263;50.882;5.984;2023-12-07T18:10:08;104.33;;;48.17;;
83340;SDS011;73263;50.882;5.984;2023-12-07T18:12:33;97.20;;;49.33;;
83340;SDS011;73263;50.882;5.984;2023-12-07T18:14:59;98.73;;;47.43;;
83340;SDS011;73263;50.882;5.984;2023-12-07T18:17:24;97.10;;;47.40;;
83340;SDS011;73263;50.882;5.984;2023-12-07T18:19:49;91.07;;;46.27;;
83340;SDS011;73263;50.882;5.984;2023-12-07T18:22:15;89.83;;;45.73;;
83340;SDS011;73263;50.882;5.984;2023-12-07T18:24:40;86.65;;;42.88;;
83340;SDS011;73263;50.882;5.984;2023-12-07T18:27:06;91.83;;;42.83;;
83340;SDS011;73263;50.882;5.984;2023-12-07T18:29:31;87.20;;;42.53;;
83340;SDS011;73263;50.882;5.984;2023-12-07T18:31:56;85.50;;;43.43;;
83340;SDS011;73263;50.882;5.984;2023-12-07T18:34:22;82.47;;;41.90;;
83340;SDS011;73263;50.882;5.984;2023-12-07T18:36:47;81.00;;;41.57;;
83340;SDS011;73263;50.882;5.984;2023-12-07T18:39:13;79.88;;;41.58;;
83340;SDS011;73263;50.882;5.984;2023-12-07T18:41:39;78.10;;;37.27;;
83340;SDS011;73263;50.882;5.984;2023-12-07T18:44:04;79.07;;;39.37;;
83340;SDS011;73263;50.882;5.984;2023-12-07T18:46:30;74.63;;;37.80;;
83340;SDS011;73263;50.882;5.984;2023-12-07T18:48:55;75.73;;;38.30;;
83340;SDS011;73263;50.882;5.984;2023-12-07T18:51:20;72.03;;;37.10;;
83340;SDS011;73263;50.882;5.984;2023-12-07T18:53:46;74.03;;;36.83;;
83340;SDS011;73263;50.882;5.984;2023-12-07T18:56:11;73.70;;;35.57;;
83340;SDS011;73263;50.882;5.984;2023-12-07T18:58:36;69.23;;;35.47;;
83340;SDS011;73263;50.882;5.984;2023-12-07T19:01:02;65.33;;;35.60;;
83340;SDS011;73263;50.882;5.984;2023-12-07T19:03:28;66.95;;;34.30;;
83340;SDS011;73263;50.882;5.984;2023-12-07T19:05:53;65.50;;;33.57;;
83340;SDS011;73263;50.882;5.984;2023-12-07T19:08:19;61.47;;;32.63;;
83340;SDS011;73263;50.882;5.984;2023-12-07T19:10:44;57.95;;;32.42;;
83340;SDS011;73263;50.882;5.984;2023-12-07T19:13:10;64.93;;;33.17;;
83340;SDS011;73263;50.882;5.984;2023-12-07T19:15:35;58.35;;;32.13;;
83340;SDS011;73263;50.882;5.984;2023-12-07T19:18:01;62.97;;;32.20;;
83340;SDS011;73263;50.882;5.984;2023-12-07T19:20:26;58.97;;;31.60;;
83340;SDS011;73263;50.882;5.984;2023-12-07T19:22:52;55.70;;;30.63;;
83340;SDS011;73263;50.882;5.984;2023-12-07T19:25:17;57.17;;;30.92;;
83340;SDS011;73263;50.882;5.984;2023-12-07T19:27:43;56.17;;;30.43;;
83340;SDS011;73263;50.882;5.984;2023-12-07T19:30:09;44.25;;;22.15;;
83340;SDS011;73263;50.882;5.984;2023-12-07T19:32:35;47.40;;;25.15;;
83340;SDS011;73263;50.882;5.984;2023-12-07T19:35:00;43.10;;;24.50;;
83340;SDS011;73263;50.882;5.984;2023-12-07T19:37:26;48.80;;;25.93;;
83340;SDS011;73263;50.882;5.984;2023-12-07T19:39:51;47.83;;;25.77;;
83340;SDS011;73263;50.882;5.984;2023-12-07T19:42:16;48.25;;;25.63;;
83340;SDS011;73263;50.882;5.984;2023-12-07T19:44:42;49.87;;;25.53;;
83340;SDS011;73263;50.882;5.984;2023-12-07T19:47:08;44.47;;;24.90;;
83340;SDS011;73263;50.882;5.984;2023-12-07T19:49:33;47.97;;;24.27;;
83340;SDS011;73263;50.882;5.984;2023-12-07T19:51:58;44.60;;;24.30;;
83340;SDS011;73263;50.882;5.984;2023-12-07T19:54:24;43.67;;;23.90;;
83340;SDS011;73263;50.882;5.984;2023-12-07T19:56:53;42.65;;;23.25;;
83340;SDS011;73263;50.882;5.984;2023-12-07T19:59:18;41.70;;;23.27;;
83340;SDS011;73263;50.882;5.984;2023-12-07T20:01:44;40.50;;;22.48;;
83340;SDS011;73263;50.882;5.984;2023-12-07T20:04:09;39.63;;;22.50;;
83340;SDS011;73263;50.882;5.984;2023-12-07T20:06:36;41.55;;;23.45;;
83340;SDS011;73263;50.882;5.984;2023-12-07T20:09:01;39.43;;;22.10;;
83340;SDS011;73263;50.882;5.984;2023-12-07T20:11:27;43.92;;;21.77;;
83340;SDS011;73263;50.882;5.984;2023-12-07T20:13:52;41.40;;;22.30;;
83340;SDS011;73263;50.882;5.984;2023-12-07T20:16:18;39.07;;;20.97;;
83340;SDS011;73263;50.882;5.984;2023-12-07T20:18:44;38.55;;;21.38;;
83340;SDS011;73263;50.882;5.984;2023-12-07T20:21:10;38.20;;;20.57;;
83340;SDS011;73263;50.882;5.984;2023-12-07T20:23:36;40.13;;;21.00;;
83340;SDS011;73263;50.882;5.984;2023-12-07T20:26:05;36.75;;;20.13;;
83340;SDS011;73263;50.882;5.984;2023-12-07T20:28:30;34.37;;;19.57;;
83340;SDS011;73263;50.882;5.984;2023-12-07T20:30:55;35.37;;;20.13;;
83340;SDS011;73263;50.882;5.984;2023-12-07T20:33:21;35.80;;;18.67;;
83340;SDS011;73263;50.882;5.984;2023-12-07T20:35:46;31.93;;;18.47;;
83340;SDS011;73263;50.882;5.984;2023-12-07T20:38:12;24.00;;;12.93;;
83340;SDS011;73263;50.882;5.984;2023-12-07T20:40:37;27.70;;;15.47;;
83340;SDS011;73263;50.882;5.984;2023-12-07T20:43:02;32.70;;;17.37;;
83340;SDS011;73263;50.882;5.984;2023-12-07T20:45:28;30.73;;;17.00;;
83340;SDS011;73263;50.882;5.984;2023-12-07T20:47:53;31.90;;;17.37;;
83340;SDS011;73263;50.882;5.984;2023-12-07T20:50:18;28.93;;;16.43;;
83340;SDS011;73263;50.882;5.984;2023-12-07T20:52:44;27.73;;;16.33;;
83340;SDS011;73263;50.882;5.984;2023-12-07T20:55:10;30.02;;;16.20;;
83340;SDS011;73263;50.882;5.984;2023-12-07T20:57:35;30.03;;;16.07;;
83340;SDS011;73263;50.882;5.984;2023-12-07T21:00:01;28.88;;;15.52;;
83340;SDS011;73263;50.882;5.984;2023-12-07T21:02:26;24.10;;;14.77;;
83340;SDS011;73263;50.882;5.984;2023-12-07T21:04:51;25.97;;;14.13;;
83340;SDS011;73263;50.882;5.984;2023-12-07T21:07:17;24.53;;;13.10;;
83340;SDS011;73263;50.882;5.984;2023-12-07T21:09:42;23.70;;;12.53;;
83340;SDS011;73263;50.882;5.984;2023-12-07T21:12:08;23.23;;;12.73;;
83340;SDS011;73263;50.882;5.984;2023-12-07T21:14:33;23.65;;;11.77;;
83340;SDS011;73263;50.882;5.984;2023-12-07T21:16:58;23.37;;;12.30;;
83340;SDS011;73263;50.882;5.984;2023-12-07T21:19:24;19.67;;;11.05;;
83340;SDS011;73263;50.882;5.984;2023-12-07T21:21:50;23.50;;;11.37;;
83340;SDS011;73263;50.882;5.984;2023-12-07T21:24:15;20.90;;;11.47;;
83340;SDS011;73263;50.882;5.984;2023-12-07T21:26:40;22.53;;;11.77;;
83340;SDS011;73263;50.882;5.984;2023-12-07T21:29:06;20.53;;;10.67;;
83340;SDS011;73263;50.882;5.984;2023-12-07T21:31:31;20.50;;;11.70;;
83340;SDS011;73263;50.882;5.984;2023-12-07T21:33:56;20.33;;;11.07;;
83340;SDS011;73263;50.882;5.984;2023-12-07T21:36:22;22.45;;;11.07;;
83340;SDS011;73263;50.882;5.984;2023-12-07T21:38:47;19.57;;;10.37;;
83340;SDS011;73263;50.882;5.984;2023-12-07T21:41:12;19.60;;;10.57;;
83340;SDS011;73263;50.882;5.984;2023-12-07T21:43:38;18.93;;;10.73;;
83340;SDS011;73263;50.882;5.984;2023-12-07T21:46:03;22.13;;;11.33;;
83340;SDS011;73263;50.882;5.984;2023-12-07T21:48:29;18.80;;;10.65;;
83340;SDS011;73263;50.882;5.984;2023-12-07T21:50:54;19.37;;;10.47;;
83340;SDS011;73263;50.882;5.984;2023-12-07T21:53:20;16.30;;;9.57;;
83340;SDS011;73263;50.882;5.984;2023-12-07T21:55:46;17.37;;;9.77;;
83340;SDS011;73263;50.882;5.984;2023-12-07T21:58:11;16.37;;;10.03;;
83340;SDS011;73263;50.882;5.984;2023-12-07T22:00:36;17.17;;;9.03;;
83340;SDS011;73263;50.882;5.984;2023-12-07T22:03:02;18.67;;;9.60;;
83340;SDS011;73263;50.882;5.984;2023-12-07T22:05:28;18.58;;;9.43;;
83340;SDS011;73263;50.882;5.984;2023-12-07T22:07:54;16.80;;;9.97;;
83340;SDS011;73263;50.882;5.984;2023-12-07T22:10:19;19.40;;;9.87;;
83340;SDS011;73263;50.882;5.984;2023-12-07T22:12:45;18.67;;;9.20;;
83340;SDS011;73263;50.882;5.984;2023-12-07T22:15:14;18.67;;;9.23;;
83340;SDS011;73263;50.882;5.984;2023-12-07T22:17:40;15.93;;;8.98;;
83340;SDS011;73263;50.882;5.984;2023-12-07T22:20:06;16.00;;;9.23;;
83340;SDS011;73263;50.882;5.984;2023-12-07T22:22:35;16.67;;;8.98;;
83340;SDS011;73263;50.882;5.984;2023-12-07T22:25:04;15.45;;;8.98;;
83340;SDS011;73263;50.882;5.984;2023-12-07T22:27:29;17.48;;;9.38;;
83340;SDS011;73263;50.882;5.984;2023-12-07T22:29:55;16.03;;;9.17;;
83340;SDS011;73263;50.882;5.984;2023-12-07T22:32:21;18.13;;;8.77;;
83340;SDS011;73263;50.882;5.984;2023-12-07T22:34:47;18.40;;;9.20;;
83340;SDS011;73263;50.882;5.984;2023-12-07T22:37:12;15.82;;;8.35;;
83340;SDS011;73263;50.882;5.984;2023-12-07T22:39:37;14.90;;;8.57;;
83340;SDS011;73263;50.882;5.984;2023-12-07T22:42:03;15.73;;;8.47;;
83340;SDS011;73263;50.882;5.984;2023-12-07T22:44:28;15.37;;;8.40;;
83340;SDS011;73263;50.882;5.984;2023-12-07T22:46:54;15.60;;;8.53;;
83340;SDS011;73263;50.882;5.984;2023-12-07T22:49:19;12.80;;;7.50;;
83340;SDS011;73263;50.882;5.984;2023-12-07T22:51:44;14.98;;;8.13;;
83340;SDS011;73263;50.882;5.984;2023-12-07T22:54:10;14.90;;;8.07;;
83340;SDS011;73263;50.882;5.984;2023-12-07T22:56:35;15.50;;;7.97;;
83340;SDS011;73263;50.882;5.984;2023-12-07T22:59:00;15.20;;;7.73;;
83340;SDS011;73263;50.882;5.984;2023-12-07T23:01:26;15.10;;;7.50;;
83340;SDS011;73263;50.882;5.984;2023-12-07T23:03:51;16.67;;;8.43;;
83340;SDS011;73263;50.882;5.984;2023-12-07T23:06:16;15.90;;;8.10;;
83340;SDS011;73263;50.882;5.984;2023-12-07T23:08:42;15.93;;;8.13;;
83340;SDS011;73263;50.882;5.984;2023-12-07T23:11:07;15.97;;;7.33;;
83340;SDS011;73263;50.882;5.984;2023-12-07T23:13:32;12.40;;;7.43;;
83340;SDS011;73263;50.882;5.984;2023-12-07T23:15:58;12.57;;;7.30;;
83340;SDS011;73263;50.882;5.984;2023-12-07T23:18:23;12.77;;;7.20;;
83340;SDS011;73263;50.882;5.984;2023-12-07T23:20:48;15.07;;;7.53;;
83340;SDS011;73263;50.882;5.984;2023-12-07T23:23:14;13.40;;;7.47;;
83340;SDS011;73263;50.882;5.984;2023-12-07T23:25:39;13.27;;;7.80;;
83340;SDS011;73263;50.882;5.984;2023-12-07T23:28:05;12.83;;;7.30;;
83340;SDS011;73263;50.882;5.984;2023-12-07T23:30:30;13.33;;;6.60;;
83340;SDS011;73263;50.882;5.984;2023-12-07T23:32:55;13.77;;;6.97;;
83340;SDS011;73263;50.882;5.984;2023-12-07T23:35:21;11.80;;;6.67;;
83340;SDS011;73263;50.882;5.984;2023-12-07T23:37:46;12.87;;;7.10;;
83340;SDS011;73263;50.882;5.984;2023-12-07T23:40:12;12.45;;;6.70;;
83340;SDS011;73263;50.882;5.984;2023-12-07T23:42:38;12.00;;;6.70;;
83340;SDS011;73263;50.882;5.984;2023-12-07T23:45:04;12.30;;;6.70;;
83340;SDS011;73263;50.882;5.984;2023-12-07T23:47:30;14.93;;;6.80;;
83340;SDS011;73263;50.882;5.984;2023-12-07T23:49:55;12.70;;;6.73;;
83340;SDS011;73263;50.882;5.984;2023-12-07T23:52:20;11.40;;;6.63;;
83340;SDS011;73263;50.882;5.984;2023-12-07T23:54:46;12.47;;;6.63;;
83340;SDS011;73263;50.882;5.984;2023-12-07T23:57:12;12.90;;;6.73;;
83340;SDS011;73263;50.882;5.984;2023-12-07T23:59:40;11.30;;;6.18;;
